x

Galveston,tx - 22 Nm East Of Galveston, Tx (42035) Wave Buoy

10:50am - Fri 9th Dec 2016 All times are CST. -6 hours from GMT.

  • Sig Wave height 5.2ft
  • Swell Direction
  • Peak Period 5s
  • Average Period 5s
  • Wind
    22mph, 27mph gusts
  • Sea Temp 65°f
  • Air Temp 45°f
  • Sea Pressure 1034.8mb
  • Galveston,tx -  22 Nm East Of Galveston, Tx
  • Galveston,tx -  22 Nm East Of Galveston, Tx

More Historic Weather Station data

Upgrade to MSW Pro to gain access to the past 30 days of data for over 8000 Wavebouys and Weather Stations around the globe.

Join Pro

Comparision Forecast

View Surf forecast
   
Fri 12/09 10:50am 5ft 5s 5s 22 27 mph 1034.8mb 65f 45f
9:50am 5.5ft 5s 5s 22 29 mph 1034.8mb 65f 46f
8:50am 5.5ft 6s 5s 25 29 mph 1034.4mb 65f 45f
7:50am 5.5ft 6s 5s 25 29 mph 1033.9mb 65f 46f
6:50am 6ft 5s 5s 22 29 mph 1033.7mb 65f 45f
5:50am 6ft 5s 5s 27 34 mph 1033mb 65f 46f
4:50am 5ft 6s 5s 27 31 mph 1032.8mb 65f 46f
3:50am 6ft 5s 5s 27 31 mph 1032.7mb 65f 46f
2:50am 5.5ft 6s 5s 25 31 mph 1032.9mb 65f 46f
1:50am 6.5ft 7s 5s 27 31 mph 1032.5mb 65f 47f
12:50am 6.5ft 6s 5s 27 34 mph 1032.9mb 65f 47f
Thu 12/08 11:50pm 6ft 6s 5s 29 36 mph 1032.3mb 65f 48f
10:50pm 6ft 6s 5s 29 36 mph 1032.4mb 65f 48f
9:50pm 6.5ft 6s 5s 29 36 mph 1032.1mb 65f 49f
8:50pm 6ft 6s 5s 27 34 mph 1032.1mb 65f 49f
7:50pm 6.5ft 5s 5s 27 34 mph 1031.3mb 65f 49f
6:50pm 6ft 6s 5s 27 34 mph 1030.4mb 65f 50f
5:50pm 6ft 6s 5s 29 38 mph 1028.4mb 65f 51f
4:50pm 6ft 6s 5s 27 34 mph 1027.6mb 65f 52f
3:50pm 6ft 7s 5s 25 29 mph 1027.4mb 65f 53f
2:50pm 6.5ft 7s 5s 27 34 mph 1026.4mb 65f 51f
1:50pm 6.5ft 6s 5s 29 36 mph 1026.4mb 65f 51f
12:50pm 7ft 7s 5s 29 36 mph 1026.7mb 65f 51f
11:50am 7ft 6s 5s 27 34 mph 1027.2mb 65f 51f
10:50am 6.5ft 6s 5s 31 38 mph 1027mb 65f 53f
9:50am 6.5ft 6s 5s 31 36 mph 1026.5mb 65f 55f
8:50am 5.5ft 6s 5s 31 36 mph 1025.2mb 66f 56f
7:50am 6ft 5s 5s 31 38 mph 1023.8mb 66f 56f
6:50am 6ft 5s 5s 31 36 mph 1022.9mb 66f 57f
5:50am 6ft 6s 5s 31 36 mph 1022.2mb 66f 57f
4:50am 5.5ft 5s 4s 29 34 mph 1021mb 66f 58f
3:50am 4.5ft 5s 4s 29 36 mph 1020.3mb 66f 59f
2:50am 4.5ft 5s 4s 27 34 mph 1020.1mb 66f 59f
1:50am 4ft 5s 4s 25 29 mph 1019.5mb 66f 59f
Wed 12/07 11:50pm 3.5ft 5s 4s 18 22 mph 1019.4mb 66f 64f
10:50pm 3.5ft 5s 4s 16 18 mph 1019.4mb 66f 65f
9:50pm 3.5ft 5s 4s 18 20 mph 1019mb 66f 65f
8:50pm 3.5ft 5s 4s 20 22 mph 1018.5mb 66f 64f
7:50pm 3.5ft 4s 4s 20 22 mph 1018.3mb 66f 63f
6:50pm 3.5ft 4s 4s 20 22 mph 1018mb 66f 62f
5:50pm 3ft 4s 4s 20 22 mph 1017.4mb 66f 62f
4:50pm 2.5ft 4s 4s 18 22 mph 1017.1mb 66f 62f
3:50pm 2.5ft 4s 4s 18 20 mph 1016.9mb 66f 62f
8:50am 1.6ft 8s 4s 9 11 mph 1018.3mb 66f 61f
7:50am 1.6ft 7s 4s 11 16 mph 1018mb 66f 60f
6:50am 1.6ft 3s 4s 11 16 mph 1017.5mb 65f 59f
5:50am 1.6ft 6s 4s 9 11 mph 1017.4mb 65f 58f
4:50am 2ft 3s 4s 11 16 mph 1016.7mb 65f 57f
3:50am 2ft 5s 3s 16 18 mph 1016.5mb 65f 57f
2:50am 2.5ft 8s 4s 16 18 mph 1016.5mb 65f 58f
1:50am 2ft 6s 4s 16 18 mph 1016.3mb 65f 59f
12:50am 2.5ft 6s 4s 16 18 mph 1016.2mb 65f 59f
Tue 12/06 11:50pm 2.5ft 4s 4s 16 18 mph 1016.4mb 65f 59f
10:50pm 3ft 4s 4s 18 20 mph 1016.3mb 65f 59f
9:50pm 3ft 4s 4s 18 22 mph 1016.2mb 65f 60f
8:50pm 2.5ft 5s 4s 20 25 mph 1015.5mb 65f 61f
7:50pm 2.5ft 5s 4s 13 16 mph 1015mb 64f 63f
6:50pm 3ft 5s 4s 2 4 mph 1014.6mb 65f 64f
5:50pm 2.5ft 5s 4s 4 7 mph 1014.1mb 65f 64f
4:50pm 2.5ft 5s 4s 9 11 mph 1013.4mb 66f 66f
3:50pm 2.5ft 5s 4s 11 13 mph 1012.6mb 66f 67f
2:50pm 2ft 5s 4s 11 13 mph 1012.3mb 66f 67f
1:50pm 2ft 5s 4s 11 16 mph 1012.1mb 65f 66f
12:50pm 2.5ft 5s 4s 11 13 mph 1012.5mb 65f 65f
11:50am 2ft 5s 4s 11 13 mph 1013.1mb 67f 66f
10:50am 2.5ft 5s 4s 7 9 mph 1013.9mb 67f 65f
9:50am 2.5ft 6s 4s 9 11 mph 1013.9mb 67f 64f
8:50am 2.5ft 5s 4s 11 13 mph 1013.3mb 67f 63f
7:50am 2.5ft 6s 4s 13
mph
1012.3mb 66f 62f
6:50am 2.5ft 6s 4s 13 16 mph 1011.7mb 66f 60f
5:50am 3ft 5s 4s 13 18 mph 1011.1mb 66f 59f
4:50am 3ft 4s 4s 13 16 mph 1010.6mb 66f 58f
3:50am 3.5ft 6s 4s 16 20 mph 1010.7mb 66f 58f
2:50am 3.5ft 6s 4s 18 22 mph 1010.5mb 67f 59f
1:50am 3.5ft 5s 4s 22 27 mph 1009.9mb 67f 59f
12:50am 3.5ft 5s 4s 20 22 mph 1009.4mb 67f 58f
Mon 12/05 11:50pm 3.5ft 5s 4s 18 22 mph 1009.1mb 67f 58f
10:50pm 3.5ft 5s 4s 22 27 mph 1008.8mb 67f 57f
9:50pm 3.5ft 5s 4s 22 27 mph 1008.6mb 67f 56f
8:50pm 3.5ft 7s 4s 25 29 mph 1008mb 67f 57f
7:50pm 3ft 6s 4s 22 27 mph 1007.8mb 67f 57f
6:50pm 3.5ft 7s 4s 13 16 mph 1007.1mb 67f 58f